• Join FlightAware (Why Join?)
  • Login
  • US Flag 
06:24PM EST


 

Airport Tracker/Info


-or-


 

Live Flight TrackerFlight Track Log ✈ SWA1736 ✈ 10-May-2013 ✈ KPHX - KTUL

Flight Track Log - Related Links

Times and Time Zones

All times are in EDT time to prevent confusion due to time zone crossing. See the SWA1736 flight status page for this flight to view local times or setup timezone preferences in your user account.

Time Position Orientation Groundspeed Altitude Reporting Facility
EDT Latitude Longitude Course Direction KTS MPH feet Rate Location/Type
10:48PM 33.4167 -112.1167 257° West 201 231 4,600  Level Phoenix TRACON
10:50PM 33.3667 -112.1833 228° Southwest 275 316 6,700 1,680 Climbing Phoenix TRACON
10:50PM 33.3000 -112.1500 157° South 294 338 8,000 1,080 Climbing Phoenix TRACON
10:51PM 33.2928 -112.1447 149° Southeast 289 333 8,000 1,320 Level Albuquerque Center
10:52PM 33.2303 -112.0864 142° Southeast 303 349 9,700 1,920 Climbing Albuquerque Center
10:53PM 33.5167 -111.1911 90° East  Level FlightAware Approximate
10:53PM 33.2544 -111.9928 73° East 315 362 12,000  Level Albuquerque Center
10:54PM 33.2953 -111.8911 64° Northeast 334 384 15,400 3,420 Climbing Albuquerque Center
10:55PM 33.3464 -111.7664 64° Northeast 347 399 19,000 3,060 Climbing Albuquerque Center
10:56PM 33.3914 -111.6564 64° Northeast 363 418 21,700 2,520 Climbing Albuquerque Center
10:57PM 33.4375 -111.5425 64° Northeast 378 435 24,200 2,160 Climbing Albuquerque Center
10:58PM 33.4822 -111.4211 66° East 394 453 26,200 1,920 Climbing Albuquerque Center
10:59PM 33.5131 -111.2883 74° East 414 476 28,200 1,800 Climbing Albuquerque Center
11:00PM 33.5456 -111.1519 74° East 423 487 30,000 1,860 Climbing Albuquerque Center
11:01PM 33.5797 -111.0133 73° East 432 497 32,100 2,040 Climbing Albuquerque Center
11:02PM 33.6131 -110.8781 73° East 429 494 34,200 1,680 Climbing Albuquerque Center
11:03PM 33.6444 -110.7458 74° East 420 483 35,600 1,320 Climbing Albuquerque Center
11:04PM 33.6817 -110.5825 75° East 422 486 37,000 1,020 Climbing Albuquerque Center
11:05PM 33.7150 -110.4436 74° East 429 494 37,700 780 Climbing Albuquerque Center
11:06PM 33.7433 -110.3189 75° East 438 504 38,600 600 Climbing Albuquerque Center
11:07PM 33.7833 -110.1467 74° East 446 513 39,000 180 Climbing Albuquerque Center
11:08PM 33.8175 -110.0056 74° East 445 512 39,000  Level Albuquerque Center
11:09PM 33.8503 -109.8619 75° East 443 510 39,000  Level Albuquerque Center
11:10PM 33.8822 -109.7247 74° East 439 505 39,000  Level Albuquerque Center
11:11PM 33.9142 -109.5819 75° East 441 507 39,000  Level Albuquerque Center
11:12PM 33.9472 -109.4403 74° East 442 509 39,000  Level Albuquerque Center
11:13PM 33.9786 -109.2958 75° East 445 512 39,000  Level Albuquerque Center
11:14PM 34.0117 -109.1511 75° East 448 516 39,000  Level Albuquerque Center
11:15PM 34.0425 -109.0072 75° East 448 516 39,000  Level Albuquerque Center
11:16PM 34.0819 -108.8361 74° East 446 513 39,000  Level Albuquerque Center
11:17PM 34.1136 -108.6933 75° East 444 511 39,000  Level Albuquerque Center
11:18PM 34.1447 -108.5497 75° East 446 513 39,000  Level Albuquerque Center
11:19PM 34.1758 -108.4050 75° East 446 513 39,000  Level Albuquerque Center
11:20PM 34.2078 -108.2628 75° East 445 512 39,000  Level Albuquerque Center
11:21PM 34.2403 -108.1008 76° East 447 514 39,000  Level Albuquerque Center
11:22PM 34.2703 -107.9564 76° East 446 513 39,000  Level Albuquerque Center
11:23PM 34.3011 -107.8117 76° East 444 511 39,000  Level Albuquerque Center
11:24PM 34.3350 -107.6642 74° East 442 509 39,000  Level Albuquerque Center
11:25PM 34.3650 -107.5197 76° East 445 512 39,000  Level Albuquerque Center
11:26PM 34.3953 -107.3758 76° East 444 511 39,000  Level Albuquerque Center
11:27PM 34.4242 -107.2317 76° East 443 510 39,000  Level Albuquerque Center
11:28PM 34.4536 -107.0872 76° East 445 512 39,000  Level Albuquerque Center
11:29PM 34.4831 -106.9406 76° East 447 514 39,000  Level Albuquerque Center
11:30PM 34.5181 -106.7639 76° East 452 520 39,000  Level Albuquerque Center
11:31PM 34.5469 -106.6181 76° East 451 519 39,000  Level Albuquerque Center
11:33PM 34.5772 -106.4706 76° East 454 522 39,000  Level Albuquerque Center
11:34PM 34.6061 -106.3236 77° East 452 520 39,000  Level Albuquerque Center
11:35PM 34.6394 -106.1617 76° East 449 517 39,000  Level Albuquerque Center
11:36PM 34.6664 -106.0131 78° East 448 516 39,000  Level Albuquerque Center
11:37PM 34.6956 -105.8658 76° East 446 513 39,000  Level Albuquerque Center
11:38PM 34.7233 -105.7181 77° East 445 512 39,000  Level Albuquerque Center
11:39PM 34.7525 -105.5708 76° East 444 511 39,000  Level Albuquerque Center
11:40PM 34.7808 -105.4239 77° East 444 511 39,000  Level Albuquerque Center
11:41PM 34.8097 -105.2761 77° East 445 512 39,000  Level Albuquerque Center
11:42PM 34.8383 -105.1269 77° East 448 516 39,000  Level Albuquerque Center
11:43PM 34.8658 -104.9761 77° East 451 519 39,000  Level Albuquerque Center
11:44PM 34.8939 -104.8261 77° East 451 519 39,000  Level Albuquerque Center
11:45PM 34.9217 -104.6753 77° East 454 522 39,000  Level Albuquerque Center
11:46PM 34.9503 -104.5250 77° East 453 521 39,000  Level Albuquerque Center
11:47PM 34.9778 -104.3736 77° East 456 525 39,000  Level Albuquerque Center
11:48PM 35.0097 -104.1978 77° East 457 526 39,000  Level Albuquerque Center
11:49PM 35.0361 -104.0472 78° East 457 526 39,000  Level Albuquerque Center
11:50PM 35.0639 -103.8961 77° East 457 526 39,000  Level Albuquerque Center
11:51PM 35.0911 -103.7444 78° East 457 526 39,000  Level Albuquerque Center
11:52PM 35.1178 -103.5933 78° East 455 524 39,000  Level Albuquerque Center
11:53PM 35.1439 -103.4417 78° East 453 521 39,000  Level Albuquerque Center
11:54PM 35.1708 -103.2903 78° East 453 521 39,000  Level Albuquerque Center
11:55PM 35.1956 -103.1378 79° East 454 522 39,000  Level Albuquerque Center
11:56PM 35.2225 -102.9847 78° East 457 526 39,000  Level Albuquerque Center
11:57PM 35.2497 -102.8156 79° East 461 531 39,000  Level Albuquerque Center
11:58PM 35.2761 -102.6619 78° East 462 532 39,000  Level Albuquerque Center
11:59PM 35.3014 -102.5075 79° East 463 533 39,000  Level Albuquerque Center
12:00AM 35.3261 -102.3528 79° East 463 533 39,000  Level Albuquerque Center
12:01AM 35.3514 -102.1989 79° East 461 531 39,000  Level Albuquerque Center
12:02AM 35.3767 -102.0461 78° East 458 527 39,000  Level Albuquerque Center
12:03AM 35.4056 -101.8733 78° East 459 528 39,000  Level Albuquerque Center
12:04AM 35.4306 -101.7194 79° East 458 527 39,000  Level Albuquerque Center
12:05AM 35.4539 -101.5833 78° East 458 527 39,000  Level Albuquerque Center
12:06AM 35.4758 -101.4281 80° East 460 529 39,000  Level Albuquerque Center
12:07AM 35.4986 -101.2681 80° East 463 533 39,000  Level Albuquerque Center
12:08AM 35.5217 -101.1136 80° East 461 531 39,000  Level Albuquerque Center
12:09AM 35.5458 -100.9592 79° East 462 532 39,000  Level Albuquerque Center
12:10AM 35.5692 -100.8044 79° East 462 532 39,000  Level Albuquerque Center
12:11AM 35.5922 -100.6483 80° East 464 534 39,000  Level Albuquerque Center
12:12AM 35.6194 -100.4625 80° East 467 537 39,000  Level Albuquerque Center
12:13AM 35.6417 -100.3044 80° East 469 540 39,000  Level Albuquerque Center
12:14AM 35.6656 -100.1472 79° East 468 539 39,000  Level Albuquerque Center
12:15AM 35.6875 -99.9897 80° East 468 539 39,000  Level Albuquerque Center
12:16AM 35.7097 -99.8314 80° East 469 540 39,000  Level Albuquerque Center
12:17AM 35.7325 -99.6739 80° East 468 539 39,000  Level Albuquerque Center
12:18AM 35.7414 -99.6117 80° East 469 540 39,000  Level Kansas City Center
12:19AM 35.7622 -99.4539 81° East 469 540 39,000  Level Kansas City Center
12:20AM 35.7858 -99.2783 81° East 470 541 39,000  Level Kansas City Center
12:21AM 35.8075 -99.1181 80° East 473 544 39,000  Level Kansas City Center
12:21AM 35.8183 -99.0439 80° East 473 544 39,000  Level Albuquerque Center
12:22AM 35.8394 -98.8853 81° East 475 547 39,000  Level Albuquerque Center
12:23AM 35.8508 -98.7967 81° East 476 548 39,000  Level Kansas City Center
12:24AM 35.8731 -98.6294 81° East 476 548 39,000  Level Kansas City Center
12:25AM 35.8939 -98.4672 81° East 478 550 39,000  Level Kansas City Center
12:26AM 35.9147 -98.3039 81° East 481 554 39,000  Level Kansas City Center
12:27AM 35.9356 -98.1408 81° East 481 554 39,000 -660 Level Kansas City Center
12:28AM 35.9550 -97.9825 81° East 483 556 37,700 -2,040 Descending Kansas City Center
12:29AM 35.9756 -97.8192 81° East 482 555 35,000 -2,580 Descending Kansas City Center
12:30AM 35.9956 -97.6567 81° East 479 551 32,600 -2,280 Descending Kansas City Center
12:31AM 36.0153 -97.4986 81° East 469 540 30,400 -2,160 Descending Kansas City Center
12:32AM 36.0333 -97.3453 82° East 457 526 28,300 -2,100 Descending Kansas City Center
12:33AM 36.0514 -97.1972 81° East 448 516 26,200 -2,040 Descending Kansas City Center
12:34AM 36.0678 -97.0572 82° East 432 497 24,200 -1,980 Descending Kansas City Center
12:35AM 36.0833 -96.9225 82° East 415 478 22,300 -2,040 Descending Kansas City Center
12:36AM 36.1008 -96.7669 82° East 397 457 20,100 -2,040 Descending Kansas City Center
12:37AM 36.1092 -96.7042 81° East 373 429 19,200 -1,680 Descending Kansas City Center
12:37AM 36.1147 -96.6439 83° East 376 433 18,400 -1,620 Descending Kansas City Center
12:38AM 36.1228 -96.5836 81° East 356 410 17,600 -1,740 Descending Kansas City Center
12:38AM 36.1256 -96.5242 87° East 362 417 16,700 -1,980 Descending Kansas City Center
12:39AM 36.1189 -96.4575 97° East 343 395 15,600 -1,800 Descending Kansas City Center
12:39AM 36.1164 -96.4069 93° East 346 398 14,900 -1,800 Descending Kansas City Center
12:40AM 36.1094 -96.3425 98° East 336 387 13,800 -1,920 Descending Kansas City Center
12:40AM 36.1033 -96.2928 99° East 340 391 13,000 -2,220 Descending Kansas City Center
12:41AM 36.0983 -96.2325 96° East 321 369 11,600 -2,400 Descending Kansas City Center
12:41AM 36.0928 -96.1836 98° East 329 379 10,600 -1,800 Descending Kansas City Center
12:42AM 36.0875 -96.1256 96° East 313 360 9,800 -1,500 Descending Kansas City Center
12:42AM 36.0819 -96.0806 99° East 313 360 9,100 -1,200 Descending Kansas City Center
12:43AM 36.0792 -96.0283 94° East 282 325 8,600 -600 Descending Kansas City Center
12:43AM 36.0739 -95.9878 99° East 285 328 8,500 -600 Descending Kansas City Center
12:44AM 36.0703 -95.9469 96° East 222 255 8,000 -1,200 Descending Kansas City Center
12:44AM 36.0675 -95.9106 95° East 240 276 7,300 -1,920 Descending Kansas City Center
12:45AM 36.0653 -95.8647 93° East 215 247 6,100 -1,980 Descending Kansas City Center
12:45AM 36.0628 -95.8372 96° East 223 257 5,300 -2,220 Descending Kansas City Center
12:46AM 36.0744 -95.8017 68° East 191 220 3,900 -2,340 Descending Kansas City Center
12:46AM 36.0917 -95.7889 31° Northeast 195 224 3,000 -1,440 Descending Kansas City Center
12:47AM 36.1217 -95.7875 North 164 189 2,500 -600 Descending Kansas City Center
12:47AM 36.1375 -95.7875 360° North 176 203 2,400 -300 Descending Kansas City Center
12:48AM 36.1636 -95.7897 356° North 151 174 2,200 -420 Descending Kansas City Center
12:48AM 36.1789 -95.7931 350° North 162 186 2,000 -720 Descending Kansas City Center
12:49AM 36.1933 -95.8169 307° West 132 152 1,500 -900 Descending Kansas City Center
12:49AM 36.1958 -95.8350 280° West 145 167 1,100 -720 Descending Kansas City Center
12:50AM 36.1956 -95.8658 269° West 141 162 800 -420 Descending Kansas City Center
12:50AM 36.1936 -95.8856 263° West 142 163 700 -240 Descending Kansas City Center